Terminal Aerodrome Forecast
Issued by NWS Tuscon, AZ

Home | Current Version | Previous Version | Text Only | Print | Product List | Glossary On
Versions: 1 2 3 4 5 6 7 8 9 10 11 12 13
000
FTUS45 KTWC 261733
TAFTUS
TAF
KTUS 261733Z 2618/2718 VRB06KT P6SM FEW080 SCT120 BKN200
     FM262000 32010KT P6SM SCT090 SCT120 SCT200
     FM270100 34010KT P6SM SCT080 BKN200
     FM270900 VRB06KT P6SM SCT200=

USA.gov is the U.S. government's official web portal to all federal, state and local government web resources and services.